Terminal Aerodrome Forecast
Issued by NWS Green Bay, WI

Home | Current Version | Previous Version | Text Only | Print | Product List | Glossary Off
Versions: 1 2 3 4 5 6 7 8 9 10 11 12 13 14 15 16 17 18 19 20 21 22 23 24 25 26 27 28 29 30 31 32 33 34 35 36 37 38 39 40

000
FTUS43 KGRB 060520
TAFGRB
TAF
KGRB 060520Z 0606/0706 18006KT P6SM SKC WS010/22030KT
     FM061400 18010G17KT P6SM SCT040 BKN120 PROB30 0618/0620 4SM
      -TSRA BR BKN040CB
     FM062000 17012G20KT P6SM SCT040 BKN100
      TEMPO 0623/0703 3SM +TSRA OVC025CB
     FM070300 VRB03KT 5SM -RA BR SCT011 BKN025
      TEMPO 0703/0706 2SM +TSRA OVC011CB=

USA.gov is the U.S. government's official web portal to all federal, state and local government web resources and services.